createdAt,value
2023-03-06T00:00:48.124Z,6.88
2023-03-06T00:05:49.931Z,8.05
2023-03-06T00:10:51.692Z,10.20
2023-03-06T00:15:53.682Z,8.82
2023-03-06T00:20:55.449Z,8.30
2023-03-06T00:25:57.179Z,6.88
2023-03-06T00:30:58.869Z,8.90
2023-03-06T00:36:00.539Z,10.27
2023-03-06T00:41:10.666Z,9.07
2023-03-06T00:46:12.402Z,10.98
2023-03-06T00:51:14.224Z,7.97
2023-03-06T00:56:17.420Z,9.80
2023-03-06T01:01:20.668Z,10.85
2023-03-06T01:06:22.479Z,10.82
2023-03-06T01:11:24.168Z,9.43
2023-03-06T01:16:26.014Z,12.38
2023-03-06T01:21:27.735Z,10.18
2023-03-06T01:26:29.501Z,8.93
2023-03-06T01:31:31.231Z,9.15
2023-03-06T01:36:32.942Z,9.00
2023-03-06T01:41:34.681Z,9.88
2023-03-06T01:46:41.962Z,11.20
2023-03-06T01:52:09.532Z,9.63
2023-03-06T01:57:20.605Z,9.52
2023-03-06T02:02:22.591Z,11.15
2023-03-06T02:07:25.374Z,10.05
2023-03-06T02:12:27.427Z,10.50
2023-03-06T02:17:29.678Z,11.05
2023-03-06T02:23:03.552Z,10.82
2023-03-06T02:28:12.922Z,8.75
2023-03-06T02:33:17.113Z,9.88
2023-03-06T02:38:21.881Z,8.57
2023-03-06T02:43:27.948Z,9.55
2023-03-06T02:48:29.614Z,9.23
2023-03-06T02:53:31.811Z,11.10
2023-03-06T02:58:33.555Z,9.80
2023-03-06T03:03:35.350Z,10.05
2023-03-06T03:08:37.229Z,11.35
2023-03-06T03:13:38.956Z,13.18
2023-03-06T03:18:41.176Z,11.68
2023-03-06T03:23:43.184Z,9.48
2023-03-06T03:28:45.226Z,10.93
2023-03-06T03:33:46.888Z,10.90
2023-03-06T03:38:48.610Z,13.95
2023-03-06T03:43:50.373Z,13.20
2023-03-06T03:48:52.087Z,14.77
2023-03-06T03:53:55.858Z,14.95
2023-03-06T03:58:58.112Z,13.52
2023-03-06T04:03:59.996Z,15.50
2023-03-06T04:09:01.921Z,15.93
2023-03-06T04:14:03.639Z,14.63
2023-03-06T04:19:05.388Z,13.50
2023-03-06T04:24:07.499Z,13.98
2023-03-06T04:29:09.196Z,12.93
2023-03-06T04:34:10.872Z,16.35
2023-03-06T04:39:13.819Z,12.93
2023-03-06T04:44:15.550Z,12.70
2023-03-06T04:49:17.273Z,16.48
2023-03-06T04:54:19.150Z,14.05
2023-03-06T04:59:21.069Z,14.57
2023-03-06T05:04:22.759Z,14.98
2023-03-06T05:09:24.468Z,16.45
2023-03-06T05:14:28.621Z,15.63
2023-03-06T05:19:31.014Z,14.52
2023-03-06T05:24:32.739Z,15.70
2023-03-06T05:29:34.431Z,15.57
2023-03-06T05:34:36.119Z,16.70
2023-03-06T05:39:37.911Z,13.68
2023-03-06T05:44:41.591Z,16.35
2023-03-06T05:49:43.314Z,14.70
2023-03-06T05:54:49.440Z,18.65
2023-03-06T05:59:51.760Z,19.70
2023-03-06T06:04:53.449Z,13.45
2023-03-06T06:09:55.322Z,15.25
2023-03-06T06:14:57.213Z,16.77
2023-03-06T06:19:59.172Z,16.05
2023-03-06T06:25:00.839Z,14.82
2023-03-06T06:30:03.289Z,14.48
2023-03-06T06:35:05.443Z,12.93
2023-03-06T06:40:07.978Z,15.05
2023-03-06T06:45:11.130Z,14.65
2023-03-06T06:50:13.975Z,16.27
2023-03-06T06:55:16.176Z,13.70
2023-03-06T07:00:18.835Z,16.02
2023-03-06T07:05:21.771Z,15.40
2023-03-06T07:10:23.970Z,15.20
2023-03-06T07:15:27.091Z,12.52
2023-03-06T07:20:28.903Z,15.93
2023-03-06T07:25:30.611Z,14.23
2023-03-06T07:30:33.383Z,14.20
2023-03-06T07:35:35.743Z,18.75
2023-03-06T07:40:39.281Z,16.73
2023-03-06T07:45:40.978Z,15.40
2023-03-06T07:50:43.347Z,17.10
2023-03-06T07:55:45.026Z,19.02
2023-03-06T08:00:46.938Z,16.05
2023-03-06T08:05:48.692Z,16.83
2023-03-06T08:10:50.433Z,19.73
2023-03-06T08:15:52.143Z,15.68
2023-03-06T08:21:07.515Z,19.20
2023-03-06T08:26:15.991Z,16.80
2023-03-06T08:31:26.773Z,17.25
2023-03-06T08:36:28.751Z,18.08
2023-03-06T08:41:30.805Z,28.67
2023-03-06T08:46:34.197Z,16.33
2023-03-06T08:51:36.276Z,18.13
2023-03-06T08:56:38.032Z,18.10
2023-03-06T09:01:40.132Z,18.55
2023-03-06T09:06:45.318Z,18.10
2023-03-06T09:11:47.069Z,18.05
2023-03-06T09:16:48.862Z,17.17
2023-03-06T09:21:50.621Z,17.50
2023-03-06T09:26:52.354Z,18.60
2023-03-06T09:31:54.479Z,18.85
2023-03-06T09:36:57.648Z,18.30
2023-03-06T09:41:59.543Z,15.23
2023-03-06T09:47:10.126Z,15.73
2023-03-06T09:52:29.940Z,22.38
2023-03-06T09:57:38.540Z,16.85
2023-03-06T10:03:06.629Z,19.17
2023-03-06T10:08:39.379Z,18.35
2023-03-06T10:13:47.855Z,20.67
2023-03-06T10:18:50.524Z,20.25
2023-03-06T10:23:56.272Z,20.05
2023-03-06T10:29:13.061Z,24.27
2023-03-06T10:34:28.577Z,25.23
2023-03-06T10:39:30.767Z,26.10
2023-03-06T10:44:32.637Z,23.65
2023-03-06T10:49:36.540Z,24.73
2023-03-06T10:54:42.295Z,24.00
2023-03-06T10:59:58.404Z,25.13
2023-03-06T11:05:01.894Z,27.33
2023-03-06T11:10:19.109Z,23.55
2023-03-06T11:15:23.959Z,23.30
2023-03-06T11:20:30.397Z,34.13
2023-03-06T11:25:48.552Z,24.33
2023-03-06T11:30:56.484Z,26.63
2023-03-06T11:36:12.951Z,24.85
2023-03-06T11:41:26.914Z,22.73
2023-03-06T11:46:34.810Z,24.13
2023-03-06T11:51:42.526Z,25.17
2023-03-06T11:56:55.963Z,21.60
2023-03-06T12:02:19.385Z,23.05
2023-03-06T12:07:46.848Z,22.75
2023-03-06T12:13:14.053Z,20.83
2023-03-06T12:18:21.999Z,19.42
2023-03-06T12:23:36.070Z,17.25
2023-03-06T12:28:40.883Z,20.83
2023-03-06T12:34:19.988Z,17.90
2023-03-06T12:39:43.615Z,16.75
2023-03-06T12:45:03.179Z,18.10
2023-03-06T12:50:22.443Z,15.25
2023-03-06T12:55:25.983Z,17.30
2023-03-06T13:00:34.301Z,12.18
2023-03-06T13:05:49.697Z,9.93
2023-03-06T13:11:27.541Z,12.52
2023-03-06T13:16:34.510Z,10.15
2023-03-06T13:21:43.671Z,8.82
2023-03-06T13:26:45.337Z,10.07
2023-03-06T13:31:47.180Z,13.88
2023-03-06T13:36:49.059Z,12.35
2023-03-06T13:41:57.357Z,15.57
2023-03-06T13:47:22.667Z,14.82
2023-03-06T13:52:38.344Z,16.92
2023-03-06T13:57:55.025Z,17.60
2023-03-06T14:03:18.615Z,15.52
2023-03-06T14:08:22.133Z,16.13
2023-03-06T14:13:35.062Z,13.90
2023-03-06T14:18:46.300Z,16.17
2023-03-06T14:24:02.898Z,16.17
2023-03-06T14:29:04.930Z,19.73
2023-03-06T14:34:22.486Z,15.20
2023-03-06T14:39:36.319Z,14.35
2023-03-06T14:44:38.132Z,15.07
2023-03-06T14:49:39.915Z,13.60
2023-03-06T14:54:44.349Z,15.80
2023-03-06T14:59:52.179Z,15.13
2023-03-06T15:05:00.124Z,15.40
2023-03-06T15:10:02.159Z,21.08
2023-03-06T15:15:08.048Z,17.45
2023-03-06T15:20:41.186Z,18.52
2023-03-06T15:26:12.497Z,16.13
2023-03-06T15:31:22.284Z,17.42
2023-03-06T15:36:29.800Z,19.70
2023-03-06T15:41:38.825Z,18.80
2023-03-06T15:46:41.523Z,28.75
2023-03-06T15:51:43.475Z,13.60
2023-03-06T15:56:47.160Z,12.63
2023-03-06T16:01:56.576Z,10.50
2023-03-06T16:06:58.567Z,10.23
2023-03-06T16:12:00.694Z,11.90
2023-03-06T16:17:02.597Z,12.27
2023-03-06T16:22:04.463Z,12.45
2023-03-06T16:27:06.973Z,11.65
2023-03-06T16:32:11.166Z,12.70
2023-03-06T16:37:14.079Z,12.65
2023-03-06T16:42:17.596Z,17.33
2023-03-06T16:47:19.304Z,20.08
2023-03-06T16:52:21.061Z,18.17
2023-03-06T16:57:23.189Z,13.65
2023-03-06T17:02:28.064Z,13.48
2023-03-06T17:07:29.906Z,15.82
2023-03-06T17:12:31.821Z,18.38
2023-03-06T17:17:34.066Z,15.73
2023-03-06T17:22:36.639Z,13.70
2023-03-06T17:27:38.429Z,15.23
2023-03-06T17:32:41.005Z,16.13
2023-03-06T17:37:42.851Z,15.45
2023-03-06T17:42:44.747Z,15.68
2023-03-06T17:47:48.923Z,13.13
2023-03-06T17:52:50.783Z,15.52
2023-03-06T17:57:52.751Z,14.38
2023-03-06T18:02:54.436Z,18.05
2023-03-06T18:07:56.163Z,45.42
2023-03-06T18:12:57.847Z,15.00
2023-03-06T18:17:59.651Z,13.70
2023-03-06T18:23:04.360Z,14.00
2023-03-06T18:28:06.124Z,19.52
2023-03-06T18:33:08.425Z,18.77
2023-03-06T18:38:10.334Z,12.98
2023-03-06T18:43:12.059Z,13.52
2023-03-06T18:48:13.765Z,14.13
2023-03-06T18:53:15.498Z,15.27
2023-03-06T18:58:21.797Z,13.40
2023-03-06T19:03:23.643Z,14.98
2023-03-06T19:08:25.615Z,16.50
2023-03-06T19:13:27.342Z,16.23
2023-03-06T19:18:29.561Z,14.82
2023-03-06T19:23:31.258Z,13.75
2023-03-06T19:28:33.622Z,15.73
2023-03-06T19:33:37.449Z,14.48
2023-03-06T19:38:39.719Z,16.10
2023-03-06T19:43:42.847Z,16.58
2023-03-06T19:48:45.700Z,17.65
2023-03-06T19:53:47.997Z,22.20
2023-03-06T19:58:49.710Z,15.32
2023-03-06T20:03:58.409Z,15.40
2023-03-06T20:09:03.435Z,12.43
2023-03-06T20:14:06.935Z,17.77
2023-03-06T20:19:10.151Z,14.07
2023-03-06T20:24:18.789Z,15.90
2023-03-06T20:29:20.529Z,17.77
2023-03-06T20:34:22.649Z,21.15
2023-03-06T20:39:25.282Z,20.75
2023-03-06T20:44:27.313Z,24.52
2023-03-06T20:49:29.055Z,23.92
2023-03-06T20:54:30.745Z,20.50
2023-03-06T20:59:32.495Z,25.05
2023-03-06T21:04:34.220Z,24.42
2023-03-06T21:09:37.693Z,23.92
2023-03-06T21:14:53.605Z,27.90
2023-03-06T21:19:55.339Z,24.35
2023-03-06T21:24:57.051Z,24.50
2023-03-06T21:29:58.815Z,22.55
2023-03-06T21:35:00.670Z,24.15
2023-03-06T21:40:02.547Z,27.00
2023-03-06T21:45:05.332Z,23.63
2023-03-06T21:50:09.488Z,24.70
2023-03-06T21:55:11.305Z,21.45
2023-03-06T22:00:13.357Z,24.85
2023-03-06T22:05:15.337Z,24.45
2023-03-06T22:10:17.289Z,25.42
2023-03-06T22:15:21.886Z,23.83
2023-03-06T22:20:23.717Z,27.58
2023-03-06T22:25:25.575Z,25.88
2023-03-06T22:30:27.418Z,25.17
2023-03-06T22:35:29.234Z,25.92
2023-03-06T22:40:32.952Z,27.83
2023-03-06T22:45:35.035Z,31.27
2023-03-06T22:50:36.805Z,24.60
2023-03-06T22:55:38.533Z,27.73
2023-03-06T23:00:40.286Z,27.50
2023-03-06T23:05:43.086Z,24.90
2023-03-06T23:10:44.971Z,25.92
2023-03-06T23:15:46.993Z,23.08
2023-03-06T23:20:48.706Z,26.77
2023-03-06T23:25:50.559Z,26.30
2023-03-06T23:30:52.591Z,25.23
2023-03-06T23:35:54.267Z,25.23
2023-03-06T23:40:56.035Z,23.88
2023-03-06T23:45:58.334Z,25.90
2023-03-06T23:51:00.539Z,24.05
2023-03-06T23:56:06.113Z,21.17
